createdAt,value
2018-10-01T00:01:52.747Z,20.97
2018-10-01T00:04:21.003Z,20.90
2018-10-01T00:06:49.283Z,20.53
2018-10-01T00:09:17.561Z,19.70
2018-10-01T00:11:45.853Z,21.30
2018-10-01T00:14:14.137Z,23.60
2018-10-01T00:16:42.380Z,22.30
2018-10-01T00:19:15.886Z,22.13
2018-10-01T00:21:49.420Z,21.23
2018-10-01T00:24:17.685Z,21.80
2018-10-01T00:26:45.945Z,20.87
2018-10-01T00:29:14.209Z,20.20
2018-10-01T00:31:42.471Z,20.53
2018-10-01T00:34:10.765Z,19.47
2018-10-01T00:36:39.028Z,20.23
2018-10-01T00:39:08.793Z,20.03
2018-10-01T00:41:37.089Z,20.10
2018-10-01T00:44:05.655Z,20.70
2018-10-01T00:46:33.932Z,22.87
2018-10-01T00:49:02.302Z,21.20
2018-10-01T00:51:30.722Z,21.90
2018-10-01T00:53:59.034Z,21.47
2018-10-01T00:56:27.369Z,21.63
2018-10-01T00:58:55.622Z,23.13
2018-10-01T01:01:24.210Z,24.00
2018-10-01T01:03:52.476Z,23.70
2018-10-01T01:06:20.760Z,23.13
2018-10-01T01:08:49.060Z,24.40
2018-10-01T01:11:17.401Z,25.13
2018-10-01T01:13:46.496Z,24.67
2018-10-01T01:16:14.770Z,23.97
2018-10-01T01:18:43.029Z,28.60
2018-10-01T01:21:11.305Z,29.10
2018-10-01T01:23:39.573Z,27.03
2018-10-01T01:26:07.857Z,26.27
2018-10-01T01:28:36.128Z,27.80
2018-10-01T01:31:04.448Z,27.87
2018-10-01T01:33:32.722Z,27.07
2018-10-01T01:36:01.000Z,28.43
2018-10-01T01:38:29.276Z,26.90
2018-10-01T01:40:57.556Z,26.53
2018-10-01T01:43:25.861Z,26.00
2018-10-01T01:45:54.241Z,26.07
2018-10-01T01:48:22.541Z,26.43
2018-10-01T01:50:50.800Z,25.27
2018-10-01T01:53:19.066Z,27.90
2018-10-01T01:55:47.446Z,25.63
2018-10-01T01:58:15.721Z,26.17
2018-10-01T02:00:43.993Z,28.47
2018-10-01T02:03:12.310Z,25.07
2018-10-01T02:05:40.565Z,26.43
2018-10-01T02:08:08.843Z,25.93
2018-10-01T02:10:37.100Z,27.03
2018-10-01T02:13:05.386Z,26.13
2018-10-01T02:15:33.669Z,29.50
2018-10-01T02:18:01.938Z,28.10
2018-10-01T02:20:30.211Z,27.60
2018-10-01T02:22:58.472Z,28.73
2018-10-01T02:25:26.784Z,28.63
2018-10-01T02:27:55.088Z,27.97
2018-10-01T02:30:23.335Z,28.17
2018-10-01T02:32:51.604Z,28.30
2018-10-01T02:35:19.888Z,28.07
2018-10-01T02:37:48.161Z,29.07
2018-10-01T02:40:16.438Z,31.07
2018-10-01T02:42:44.761Z,30.63
2018-10-01T02:45:13.029Z,30.53
2018-10-01T02:47:41.348Z,31.33
2018-10-01T02:50:09.604Z,30.90
2018-10-01T02:52:43.324Z,29.13
2018-10-01T02:55:11.601Z,30.43
2018-10-01T02:57:39.870Z,31.87
2018-10-01T03:00:09.497Z,35.17
2018-10-01T03:02:38.347Z,31.80
2018-10-01T03:05:06.657Z,32.57
2018-10-01T03:07:34.933Z,31.03
2018-10-01T03:10:03.221Z,34.10
2018-10-01T03:12:31.512Z,34.33
2018-10-01T03:14:59.804Z,35.37
2018-10-01T03:17:28.069Z,34.53
2018-10-01T03:19:56.387Z,31.83
2018-10-01T03:22:24.651Z,32.80
2018-10-01T03:24:52.945Z,38.43
2018-10-01T03:27:21.272Z,35.77
2018-10-01T03:29:49.575Z,34.67
2018-10-01T03:32:17.819Z,37.47
2018-10-01T03:34:46.135Z,35.37
2018-10-01T03:37:14.412Z,34.50
2018-10-01T03:39:42.733Z,35.33
2018-10-01T03:42:11.005Z,38.27
2018-10-01T03:44:39.285Z,38.30
2018-10-01T03:47:07.549Z,35.07
2018-10-01T03:49:35.812Z,34.93
2018-10-01T03:52:04.073Z,35.47
2018-10-01T03:54:32.342Z,34.80
2018-10-01T03:57:00.606Z,36.57
2018-10-01T03:59:28.901Z,38.27
2018-10-01T04:01:57.154Z,36.13
2018-10-01T04:04:25.422Z,40.57
2018-10-01T04:06:53.705Z,37.77
2018-10-01T04:09:21.979Z,40.90
2018-10-01T04:11:50.285Z,39.47
2018-10-01T04:14:18.564Z,40.43
2018-10-01T04:16:46.831Z,36.53
2018-10-01T04:19:15.111Z,36.83
2018-10-01T04:21:43.368Z,33.37
2018-10-01T04:24:11.632Z,40.70
2018-10-01T04:26:39.909Z,37.73
2018-10-01T04:29:08.195Z,35.73
2018-10-01T04:31:36.467Z,38.20
2018-10-01T04:34:04.741Z,36.57
2018-10-01T04:36:33.038Z,39.53
2018-10-01T04:39:01.293Z,36.43
2018-10-01T04:41:29.565Z,43.77
2018-10-01T04:43:57.820Z,41.60
2018-10-01T04:46:26.090Z,38.37
2018-10-01T04:48:54.359Z,35.50
2018-10-01T04:51:22.635Z,35.53
2018-10-01T04:53:50.900Z,35.03
2018-10-01T04:56:19.154Z,41.97
2018-10-01T04:58:47.425Z,30.97
2018-10-01T05:01:15.681Z,30.47
2018-10-01T05:03:43.972Z,36.90
2018-10-01T05:06:12.268Z,32.63
2018-10-01T05:08:40.536Z,34.93
2018-10-01T05:11:08.808Z,30.47
2018-10-01T05:13:37.080Z,24.93
2018-10-01T05:16:05.376Z,25.70
2018-10-01T05:18:33.658Z,27.33
2018-10-01T05:21:01.941Z,27.63
2018-10-01T05:23:30.209Z,27.07
2018-10-01T05:25:58.582Z,24.03
2018-10-01T05:28:26.866Z,28.03
2018-10-01T05:30:55.149Z,29.07
2018-10-01T05:33:23.436Z,22.43
2018-10-01T05:35:51.718Z,26.37
2018-10-01T05:38:20.012Z,22.97
2018-10-01T05:40:48.269Z,24.20
2018-10-01T05:43:16.541Z,17.37
2018-10-01T05:45:44.851Z,16.60
2018-10-01T05:48:13.108Z,8.53
2018-10-01T05:50:41.366Z,8.03
2018-10-01T05:53:09.633Z,11.13
2018-10-01T05:55:37.900Z,12.97
2018-10-01T05:58:06.186Z,16.67
2018-10-01T06:00:34.442Z,13.50
2018-10-01T06:03:02.696Z,12.73
2018-10-01T06:05:30.966Z,12.27
2018-10-01T06:07:59.225Z,22.47
2018-10-01T06:10:27.480Z,25.47
2018-10-01T06:12:55.772Z,24.00
2018-10-01T06:15:24.051Z,26.33
2018-10-01T06:17:52.328Z,25.77
2018-10-01T06:20:20.602Z,22.60
2018-10-01T06:22:48.869Z,24.53
2018-10-01T06:25:17.205Z,22.87
2018-10-01T06:27:45.413Z,22.47
2018-10-01T06:30:13.684Z,22.00
2018-10-01T06:32:41.960Z,22.00
2018-10-01T06:35:10.286Z,24.03
2018-10-01T06:37:38.564Z,23.97
2018-10-01T06:40:06.880Z,23.70
2018-10-01T06:42:35.187Z,28.10
2018-10-01T06:45:03.478Z,23.83
2018-10-01T06:47:31.748Z,23.00
2018-10-01T06:50:00.021Z,22.33
2018-10-01T06:52:28.303Z,23.00
2018-10-01T06:54:56.580Z,20.53
2018-10-01T06:57:24.868Z,22.70
2018-10-01T06:59:53.149Z,23.33
2018-10-01T07:02:21.399Z,21.70
2018-10-01T07:04:49.680Z,21.10
2018-10-01T07:07:20.992Z,23.37
2018-10-01T07:09:49.300Z,24.07
2018-10-01T07:12:17.571Z,24.43
2018-10-01T07:14:46.225Z,20.60
2018-10-01T07:17:14.644Z,19.87
2018-10-01T07:19:43.181Z,17.60
2018-10-01T07:22:11.460Z,17.63
2018-10-01T07:24:39.740Z,15.97
2018-10-01T07:27:08.123Z,14.20
2018-10-01T07:29:36.408Z,15.00
2018-10-01T07:32:09.967Z,14.77
2018-10-01T07:34:41.018Z,13.47
2018-10-01T07:37:10.794Z,12.77
2018-10-01T07:39:39.101Z,14.43
2018-10-01T07:42:07.706Z,12.53
2018-10-01T07:44:35.981Z,12.93
2018-10-01T07:47:04.264Z,13.33
2018-10-01T07:49:32.604Z,12.50
2018-10-01T07:52:00.815Z,13.83
2018-10-01T07:54:29.086Z,12.50
2018-10-01T07:56:57.575Z,12.30
2018-10-01T07:59:25.876Z,12.87
2018-10-01T08:01:54.141Z,11.43
2018-10-01T08:04:22.409Z,9.90
2018-10-01T08:06:50.661Z,9.20
2018-10-01T08:09:18.980Z,9.83
2018-10-01T08:11:47.188Z,10.43
2018-10-01T08:14:15.557Z,10.17
2018-10-01T08:16:43.765Z,10.43
2018-10-01T08:19:12.088Z,9.13
2018-10-01T08:21:40.464Z,9.27
2018-10-01T08:24:08.741Z,10.10
2018-10-01T08:26:37.052Z,11.13
2018-10-01T08:29:05.374Z,12.10
2018-10-01T08:31:33.572Z,12.63
2018-10-01T08:34:01.836Z,14.27
2018-10-01T08:36:30.145Z,12.73
2018-10-01T08:38:58.444Z,13.33
2018-10-01T08:41:26.733Z,12.50
2018-10-01T08:43:54.997Z,12.50
2018-10-01T08:46:23.261Z,12.70
2018-10-01T08:48:59.091Z,11.63
2018-10-01T08:51:32.366Z,12.80
2018-10-01T08:54:13.069Z,13.40
2018-10-01T08:56:41.693Z,14.27
2018-10-01T08:59:10.334Z,13.60
2018-10-01T09:01:38.555Z,13.93
2018-10-01T09:04:06.818Z,14.33
2018-10-01T09:06:35.123Z,15.83
2018-10-01T09:09:04.193Z,14.47
2018-10-01T09:11:32.493Z,15.23
2018-10-01T09:14:00.771Z,14.97
2018-10-01T09:16:29.044Z,15.43
2018-10-01T09:18:57.312Z,15.27
2018-10-01T09:21:25.647Z,16.70
2018-10-01T09:23:53.864Z,16.77
2018-10-01T09:26:22.191Z,16.47
2018-10-01T09:28:51.016Z,17.73
2018-10-01T09:31:19.340Z,17.83
2018-10-01T09:33:47.616Z,18.50
2018-10-01T09:36:15.899Z,19.53
2018-10-01T09:38:44.724Z,18.27
2018-10-01T09:41:12.990Z,19.87
2018-10-01T09:43:41.297Z,20.23
2018-10-01T09:46:09.652Z,19.53
2018-10-01T09:48:37.908Z,19.57
2018-10-01T09:51:06.208Z,19.63
2018-10-01T09:53:35.764Z,19.93
2018-10-01T09:56:04.679Z,21.30
2018-10-01T09:58:33.039Z,20.77
2018-10-01T10:01:06.656Z,16.27
2018-10-01T10:03:34.944Z,17.30
2018-10-01T10:06:03.227Z,16.13
2018-10-01T10:08:31.586Z,15.53
2018-10-01T10:10:59.814Z,13.53
2018-10-01T10:13:28.488Z,13.10
2018-10-01T10:15:56.787Z,14.80
2018-10-01T10:18:25.061Z,14.67
2018-10-01T10:20:53.385Z,15.13
2018-10-01T10:23:21.657Z,14.43
2018-10-01T10:25:49.928Z,14.00
2018-10-01T10:28:18.223Z,14.57
2018-10-01T10:30:46.468Z,13.40
2018-10-01T10:33:14.780Z,14.60
2018-10-01T10:35:43.248Z,13.60
2018-10-01T10:38:11.569Z,14.07
2018-10-01T10:40:39.792Z,15.07
2018-10-01T10:43:08.053Z,14.20
2018-10-01T10:45:36.340Z,14.63
2018-10-01T10:48:04.620Z,15.47
2018-10-01T10:50:32.921Z,16.60
2018-10-01T10:53:01.168Z,17.07
2018-10-01T10:55:29.428Z,17.67
2018-10-01T10:57:57.884Z,16.90
2018-10-01T11:00:26.156Z,15.80
2018-10-01T11:02:54.445Z,16.23
2018-10-01T11:05:22.699Z,16.43
2018-10-01T11:07:51.424Z,16.13
2018-10-01T11:10:19.713Z,16.07
2018-10-01T11:12:47.984Z,15.47
2018-10-01T11:15:16.613Z,16.20
2018-10-01T11:17:44.630Z,15.30
2018-10-01T11:20:12.913Z,16.30
2018-10-01T11:22:41.237Z,17.17
2018-10-01T11:25:09.580Z,17.53
2018-10-01T11:27:37.798Z,23.50
2018-10-01T11:30:06.912Z,18.43
2018-10-01T11:32:35.181Z,18.00
2018-10-01T11:35:03.585Z,82.47
2018-10-01T11:37:31.736Z,18.17
2018-10-01T11:40:00.008Z,18.47
2018-10-01T11:42:28.291Z,30.77
2018-10-01T11:44:56.645Z,18.43
2018-10-01T11:47:24.829Z,20.77
2018-10-01T11:49:53.099Z,19.07
2018-10-01T11:52:21.356Z,18.53
2018-10-01T11:54:49.626Z,20.00
2018-10-01T11:57:18.026Z,18.53
2018-10-01T11:59:46.260Z,20.23
2018-10-01T12:02:14.536Z,20.20
2018-10-01T12:04:42.827Z,19.87
2018-10-01T12:07:11.076Z,19.70
2018-10-01T12:09:39.398Z,19.23
2018-10-01T12:12:07.649Z,20.73
2018-10-01T12:14:35.920Z,19.67
2018-10-01T12:17:04.270Z,19.33
2018-10-01T12:19:32.572Z,20.60
2018-10-01T12:22:00.878Z,19.77
2018-10-01T12:24:29.112Z,18.43
2018-10-01T12:26:57.506Z,19.17
2018-10-01T12:29:25.740Z,19.60
2018-10-01T12:31:54.045Z,19.67
2018-10-01T12:34:22.321Z,19.33
2018-10-01T12:36:50.604Z,20.03
2018-10-01T12:39:18.880Z,19.70
2018-10-01T12:41:47.137Z,18.40
2018-10-01T12:44:15.429Z,18.67
2018-10-01T12:46:43.716Z,21.07
2018-10-01T12:49:11.981Z,19.10
2018-10-01T12:51:40.272Z,20.57
2018-10-01T12:54:08.520Z,21.10
2018-10-01T12:56:36.800Z,21.20
2018-10-01T12:59:05.179Z,21.80
2018-10-01T13:01:33.441Z,21.53
2018-10-01T13:04:01.718Z,20.27
2018-10-01T13:06:30.132Z,20.67
2018-10-01T13:08:58.297Z,20.67
2018-10-01T13:11:26.699Z,21.43
2018-10-01T13:13:55.014Z,22.20
2018-10-01T13:16:23.284Z,34.20
2018-10-01T13:18:51.545Z,24.07
2018-10-01T13:21:19.856Z,27.67
2018-10-01T13:23:48.142Z,23.13
2018-10-01T13:26:16.604Z,24.47
2018-10-01T13:28:44.924Z,23.00
2018-10-01T13:31:13.225Z,22.60
2018-10-01T13:33:43.097Z,21.93
2018-10-01T13:36:11.716Z,23.23
2018-10-01T13:38:40.044Z,23.10
2018-10-01T13:41:08.401Z,21.93
2018-10-01T13:43:36.713Z,21.47
2018-10-01T13:46:05.200Z,21.93
2018-10-01T13:48:33.590Z,20.70
2018-10-01T13:51:01.790Z,21.70
2018-10-01T13:53:34.187Z,21.63
2018-10-01T13:56:04.956Z,22.03
2018-10-01T13:58:33.604Z,21.93
2018-10-01T14:01:01.924Z,21.53
2018-10-01T14:03:31.987Z,22.00
2018-10-01T14:06:00.341Z,22.67
2018-10-01T14:08:28.618Z,21.20
2018-10-01T14:10:57.068Z,23.33
2018-10-01T14:13:25.525Z,22.67
2018-10-01T14:15:53.696Z,22.60
2018-10-01T14:18:21.980Z,22.20
2018-10-01T14:20:50.277Z,24.57
2018-10-01T14:23:18.576Z,23.33
2018-10-01T14:25:47.070Z,23.93
2018-10-01T14:28:15.346Z,24.43
2018-10-01T14:30:43.639Z,25.17
2018-10-01T14:33:11.985Z,24.27
2018-10-01T14:35:40.302Z,24.17
2018-10-01T14:38:08.673Z,24.90
2018-10-01T14:40:36.976Z,25.80
2018-10-01T14:43:05.342Z,26.00
2018-10-01T14:45:33.538Z,25.10
2018-10-01T14:48:01.875Z,25.33
2018-10-01T14:50:30.136Z,24.67
2018-10-01T14:52:58.434Z,26.10
2018-10-01T14:55:26.713Z,24.70
2018-10-01T14:57:54.992Z,25.67
2018-10-01T15:00:23.401Z,24.87
2018-10-01T15:02:51.559Z,24.80
2018-10-01T15:05:19.889Z,25.73
2018-10-01T15:07:48.160Z,24.87
2018-10-01T15:10:16.456Z,25.70
2018-10-01T15:12:44.724Z,24.73
2018-10-01T15:15:13.049Z,24.07
2018-10-01T15:17:41.325Z,23.57
2018-10-01T15:20:09.636Z,24.40
2018-10-01T15:22:38.053Z,23.73
2018-10-01T15:25:06.409Z,24.17
2018-10-01T15:27:34.681Z,25.10
2018-10-01T15:30:03.066Z,25.10
2018-10-01T15:32:31.311Z,25.23
2018-10-01T15:34:59.584Z,25.73
2018-10-01T15:37:27.846Z,25.93
2018-10-01T15:39:56.272Z,26.90
2018-10-01T15:42:26.409Z,25.37
2018-10-01T15:44:54.693Z,24.97
2018-10-01T15:47:22.972Z,26.00
2018-10-01T15:49:51.260Z,25.60
2018-10-01T15:52:19.513Z,23.40
2018-10-01T15:54:47.849Z,22.77
2018-10-01T15:57:16.147Z,21.27
2018-10-01T15:59:44.444Z,22.03
2018-10-01T16:02:12.801Z,21.60
2018-10-01T16:04:41.059Z,21.07
2018-10-01T16:07:09.332Z,21.90
2018-10-01T16:09:37.631Z,21.93
2018-10-01T16:12:05.925Z,20.73
2018-10-01T16:14:34.241Z,21.17
2018-10-01T16:17:02.511Z,20.53
2018-10-01T16:19:30.988Z,19.00
2018-10-01T16:22:00.174Z,18.87
2018-10-01T16:24:28.431Z,17.87
2018-10-01T16:26:56.891Z,17.17
2018-10-01T16:29:25.189Z,17.87
2018-10-01T16:31:53.453Z,19.67
2018-10-01T16:34:21.746Z,19.70
2018-10-01T16:36:50.009Z,18.93
2018-10-01T16:39:18.321Z,18.97
2018-10-01T16:41:46.608Z,19.87
2018-10-01T16:44:14.895Z,20.43
2018-10-01T16:46:43.255Z,19.87
2018-10-01T16:49:11.681Z,19.77
2018-10-01T16:51:39.957Z,19.87
2018-10-01T16:54:08.229Z,20.00
2018-10-01T16:59:11.125Z,18.03
2018-10-01T17:01:41.037Z,17.70
2018-10-01T17:04:09.365Z,17.53
2018-10-01T17:06:37.632Z,18.23
2018-10-01T17:09:07.528Z,16.70
2018-10-01T17:11:35.813Z,15.47
2018-10-01T17:14:04.184Z,15.40
2018-10-01T17:16:32.460Z,15.53
2018-10-01T17:19:00.814Z,15.60
2018-10-01T17:21:29.089Z,14.50
2018-10-01T17:23:57.376Z,14.20
2018-10-01T17:26:25.636Z,14.73
2018-10-01T17:28:53.966Z,15.67
2018-10-01T17:31:22.233Z,15.73
2018-10-01T17:33:50.536Z,15.27
2018-10-01T17:36:19.069Z,15.07
2018-10-01T17:38:47.413Z,18.27
2018-10-01T17:41:15.760Z,17.77
2018-10-01T17:43:44.024Z,16.37
2018-10-01T17:46:12.304Z,16.40
2018-10-01T17:48:40.590Z,15.40
2018-10-01T17:51:08.866Z,15.97
2018-10-01T17:53:37.144Z,18.23
2018-10-01T17:56:05.504Z,15.27
2018-10-01T17:58:33.804Z,14.90
2018-10-01T18:01:02.257Z,13.27
2018-10-01T18:03:30.553Z,12.17
2018-10-01T18:05:59.124Z,11.93
2018-10-01T18:08:27.416Z,13.30
2018-10-01T18:10:55.837Z,13.03
2018-10-01T18:13:24.425Z,12.37
2018-10-01T18:15:52.830Z,28.17
2018-10-01T18:18:21.318Z,19.30
2018-10-01T18:20:49.558Z,14.80
2018-10-01T18:23:17.866Z,19.70
2018-10-01T18:25:47.079Z,14.57
2018-10-01T18:28:15.340Z,16.03
2018-10-01T18:30:46.484Z,15.20
2018-10-01T18:33:14.801Z,14.00
2018-10-01T18:35:43.075Z,13.90
2018-10-01T18:38:11.329Z,14.53
2018-10-01T18:40:39.624Z,15.27
2018-10-01T18:43:07.900Z,14.70
2018-10-01T18:45:36.159Z,16.50
2018-10-01T18:48:04.493Z,17.30
2018-10-01T18:50:33.150Z,18.33
2018-10-01T18:53:01.352Z,19.37
2018-10-01T18:55:29.621Z,18.73
2018-10-01T18:57:57.885Z,18.50
2018-10-01T19:00:26.255Z,19.90
2018-10-01T19:02:54.424Z,19.83
2018-10-01T19:05:22.677Z,19.00
2018-10-01T19:07:50.953Z,17.57
2018-10-01T19:10:19.271Z,18.80
2018-10-01T19:12:47.513Z,18.67
2018-10-01T19:15:15.848Z,17.30
2018-10-01T19:17:44.138Z,17.20
2018-10-01T19:20:12.358Z,17.17
2018-10-01T19:22:40.631Z,16.03
2018-10-01T19:25:08.925Z,16.07
2018-10-01T19:27:37.230Z,15.43
2018-10-01T19:30:05.645Z,15.37
2018-10-01T19:32:33.823Z,14.97
2018-10-01T19:35:02.105Z,15.00
2018-10-01T19:37:30.387Z,13.43
2018-10-01T19:39:58.741Z,13.60
2018-10-01T19:42:27.013Z,13.13
2018-10-01T19:44:55.312Z,13.27
2018-10-01T19:47:23.708Z,13.17
2018-10-01T19:49:51.849Z,12.97
2018-10-01T19:52:20.168Z,13.53
2018-10-01T19:54:48.448Z,14.00
2018-10-01T19:57:16.744Z,14.97
2018-10-01T19:59:44.986Z,14.00
2018-10-01T20:02:13.272Z,14.77
2018-10-01T20:04:41.563Z,15.43
2018-10-01T20:07:09.801Z,15.00
2018-10-01T20:09:38.119Z,15.80
2018-10-01T20:12:06.384Z,15.07
2018-10-01T20:14:34.644Z,15.23
2018-10-01T20:17:02.991Z,17.07
2018-10-01T20:19:31.180Z,15.33
2018-10-01T20:21:59.518Z,13.80
2018-10-01T20:24:27.838Z,14.40
2018-10-01T20:26:56.337Z,14.87
2018-10-01T20:29:24.716Z,15.13
2018-10-01T20:31:52.805Z,14.77
2018-10-01T20:34:21.028Z,14.00
2018-10-01T20:36:49.317Z,14.63
2018-10-01T20:39:17.598Z,15.30
2018-10-01T20:41:46.084Z,16.97
2018-10-01T20:44:14.343Z,16.83
2018-10-01T20:46:42.744Z,17.43
2018-10-01T20:49:10.994Z,18.87
2018-10-01T20:51:39.272Z,18.13
2018-10-01T20:54:07.552Z,17.03
2018-10-01T20:56:35.824Z,17.07
2018-10-01T20:59:04.110Z,17.70
2018-10-01T21:01:32.380Z,17.47
2018-10-01T21:04:00.640Z,15.37
2018-10-01T21:06:28.963Z,15.63
2018-10-01T21:08:57.353Z,14.50
2018-10-01T21:11:25.624Z,14.13
2018-10-01T21:13:53.884Z,13.93
2018-10-01T21:16:22.158Z,14.53
2018-10-01T21:18:50.417Z,14.70
2018-10-01T21:21:18.683Z,15.43
2018-10-01T21:23:46.944Z,14.47
2018-10-01T21:26:15.221Z,14.73
2018-10-01T21:28:43.504Z,15.17
2018-10-01T21:31:11.770Z,15.37
2018-10-01T21:33:40.052Z,15.20
2018-10-01T21:36:08.317Z,13.60
2018-10-01T21:38:39.680Z,14.60
2018-10-01T21:41:08.373Z,11.23
2018-10-01T21:43:36.629Z,11.23
2018-10-01T21:46:04.948Z,10.47
2018-10-01T21:48:33.217Z,10.37
2018-10-01T21:51:01.501Z,10.63
2018-10-01T21:53:29.772Z,11.23
2018-10-01T21:55:58.046Z,11.57
2018-10-01T21:58:26.316Z,12.30
2018-10-01T22:00:59.929Z,11.80
2018-10-01T22:03:28.196Z,12.87
2018-10-01T22:05:56.496Z,12.50
2018-10-01T22:08:24.769Z,13.60
2018-10-01T22:10:53.064Z,14.50
2018-10-01T22:13:21.331Z,14.30
2018-10-01T22:15:49.596Z,14.23
2018-10-01T22:18:19.672Z,15.07
2018-10-01T22:20:48.232Z,15.43
2018-10-01T22:23:16.922Z,15.20
2018-10-01T22:25:45.256Z,15.70
2018-10-01T22:28:13.529Z,16.43
2018-10-01T22:30:42.677Z,15.80
2018-10-01T22:33:11.352Z,16.03
2018-10-01T22:35:39.629Z,16.27
2018-10-01T22:38:07.906Z,15.47
2018-10-01T22:40:36.196Z,16.40
2018-10-01T22:43:04.464Z,16.23
2018-10-01T22:45:32.745Z,15.67
2018-10-01T22:48:01.074Z,15.30
2018-10-01T22:50:29.346Z,16.73
2018-10-01T22:52:57.609Z,14.63
2018-10-01T22:55:25.909Z,16.17
2018-10-01T22:57:54.190Z,14.10
2018-10-01T23:00:22.490Z,13.33
2018-10-01T23:02:50.758Z,14.03
2018-10-01T23:05:19.028Z,12.20
2018-10-01T23:07:47.297Z,11.70
2018-10-01T23:10:15.572Z,11.27
2018-10-01T23:12:43.840Z,12.17
2018-10-01T23:15:12.114Z,11.90
2018-10-01T23:17:40.389Z,11.13
2018-10-01T23:20:08.690Z,11.30
2018-10-01T23:22:36.952Z,11.47
2018-10-01T23:25:05.252Z,10.97
2018-10-01T23:27:33.519Z,10.70
2018-10-01T23:30:01.813Z,11.20
2018-10-01T23:32:30.069Z,10.57
2018-10-01T23:34:58.336Z,10.53
2018-10-01T23:37:26.592Z,9.67
2018-10-01T23:39:54.876Z,10.33
2018-10-01T23:42:23.129Z,9.73
2018-10-01T23:44:51.401Z,9.80
2018-10-01T23:47:19.679Z,9.83
2018-10-01T23:49:47.972Z,8.33
2018-10-01T23:52:16.249Z,8.90
2018-10-01T23:54:44.510Z,9.10
2018-10-01T23:57:12.792Z,9.10
2018-10-01T23:59:41.055Z,8.60
